Portada
METAR-TAF:

METAR-TAF

Aeropuertos :

Odesa, Ucrania

Aeropuerto Internacional de Odesa

latitud: 46-26N, longitud: 030-46E, altitud: 42 m

Observación

El informe se hizo hace 28 minutos, a las 19:00 UTC
Viento calma
Temperatura 23°C
Humedad 53%
Presión 1015 hPa
Visibilidad 10 km o más
sin nubes por debajo de 1500 m y sin presencia de cumulonimbus.

METAR: UKOO 171900Z 00000MPS CAVOK 23/13 Q1015 R16/090060 NOSIG

Hora: 22:28 (19:28 UTC)

Pronóstico

El informe se hizo hace 2 horas y 23 minutos, a las 17:05 UTC
Pronóstico válido del 17 a las 18 UTC al 18 a las 18 UTC
Viento 6 kt del norte
Visibilidad: 6000 m
Nubes dispersas a una altura de 2000 ft
Evolucionando progresivamente
del 18 a las 05 UTC al 18 a las 06 UTC
Viento 12 kt del este-noreste con ráfagas de 23 kt

TAF: UKOO 171705Z 1718/1818 01003MPS 6000 SCT020 BECMG 1805/1806 06006G12MPS TX34/1811Z TN20/1802Z

Observaciones y pronósticos meteorológicos de más de 4000 aeropuertos (mensajes METAR y TAF).

Los puntos amarillos y rojos representan las estaciones disponibles.

Ponga el ratón en el punto deseado para ver el nombre de la estación.

Haga clic para ver las observaciones y los pronósticos meteorológicos.

Para cambiar el mapa : haga clic en los botones verdes con una cruz de color negro para hacer un zoom, en el botón verde con un guión para alejar o en las flechas verdes para mapas adyacentes.


METAR-TAF: